sensor_id;sensor_type;location;lat;lon;timestamp;P1;durP1;ratioP1;P2;durP2;ratioP2
48522;SDS011;34315;50.150;11.070;2022-12-16T00:01:17;33.33;;;16.02;;
48522;SDS011;34315;50.150;11.070;2022-12-16T00:06:19;35.25;;;15.43;;
48522;SDS011;34315;50.150;11.070;2022-12-16T00:11:20;36.00;;;15.90;;
48522;SDS011;34315;50.150;11.070;2022-12-16T00:16:20;31.27;;;14.13;;
48522;SDS011;34315;50.150;11.070;2022-12-16T00:21:20;31.00;;;14.48;;
48522;SDS011;34315;50.150;11.070;2022-12-16T00:26:22;29.95;;;13.43;;
48522;SDS011;34315;50.150;11.070;2022-12-16T00:31:22;31.17;;;13.15;;
48522;SDS011;34315;50.150;11.070;2022-12-16T00:36:23;30.80;;;13.65;;
48522;SDS011;34315;50.150;11.070;2022-12-16T00:41:23;29.80;;;12.75;;
48522;SDS011;34315;50.150;11.070;2022-12-16T00:46:24;31.80;;;12.95;;
48522;SDS011;34315;50.150;11.070;2022-12-16T00:51:24;23.63;;;12.07;;
48522;SDS011;34315;50.150;11.070;2022-12-16T00:56:25;27.80;;;12.50;;
48522;SDS011;34315;50.150;11.070;2022-12-16T01:01:25;24.38;;;12.32;;
48522;SDS011;34315;50.150;11.070;2022-12-16T01:06:25;26.45;;;11.75;;
48522;SDS011;34315;50.150;11.070;2022-12-16T01:11:26;21.80;;;10.55;;
48522;SDS011;34315;50.150;11.070;2022-12-16T01:16:26;21.80;;;9.80;;
48522;SDS011;34315;50.150;11.070;2022-12-16T01:21:27;18.98;;;8.70;;
48522;SDS011;34315;50.150;11.070;2022-12-16T01:26:27;20.02;;;9.55;;
48522;SDS011;34315;50.150;11.070;2022-12-16T01:31:27;19.92;;;9.13;;
48522;SDS011;34315;50.150;11.070;2022-12-16T01:36:28;15.20;;;7.32;;
48522;SDS011;34315;50.150;11.070;2022-12-16T01:41:28;17.23;;;7.75;;
48522;SDS011;34315;50.150;11.070;2022-12-16T01:46:29;14.52;;;6.68;;
48522;SDS011;34315;50.150;11.070;2022-12-16T01:51:32;14.85;;;6.68;;
48522;SDS011;34315;50.150;11.070;2022-12-16T01:56:35;14.73;;;6.25;;
48522;SDS011;34315;50.150;11.070;2022-12-16T02:01:39;13.60;;;6.95;;
48522;SDS011;34315;50.150;11.070;2022-12-16T02:06:40;14.50;;;6.72;;
48522;SDS011;34315;50.150;11.070;2022-12-16T02:12:01;12.55;;;5.93;;
48522;SDS011;34315;50.150;11.070;2022-12-16T02:17:13;10.93;;;5.32;;
48522;SDS011;34315;50.150;11.070;2022-12-16T02:33:18;14.75;;;7.28;;
48522;SDS011;34315;50.150;11.070;2022-12-16T02:38:26;13.13;;;6.65;;
48522;SDS011;34315;50.150;11.070;2022-12-16T02:48:42;13.10;;;6.82;;
48522;SDS011;34315;50.150;11.070;2022-12-16T02:53:43;13.43;;;6.00;;
48522;SDS011;34315;50.150;11.070;2022-12-16T02:59:02;15.68;;;6.28;;
48522;SDS011;34315;50.150;11.070;2022-12-16T03:04:15;13.60;;;6.63;;
48522;SDS011;34315;50.150;11.070;2022-12-16T03:09:19;13.60;;;6.47;;
48522;SDS011;34315;50.150;11.070;2022-12-16T03:14:23;11.88;;;5.82;;
48522;SDS011;34315;50.150;11.070;2022-12-16T03:19:26;13.85;;;6.45;;
48522;SDS011;34315;50.150;11.070;2022-12-16T03:24:27;12.70;;;6.32;;
48522;SDS011;34315;50.150;11.070;2022-12-16T03:29:35;13.05;;;6.43;;
48522;SDS011;34315;50.150;11.070;2022-12-16T03:35:15;15.07;;;6.50;;
48522;SDS011;34315;50.150;11.070;2022-12-16T03:40:18;12.90;;;5.90;;
48522;SDS011;34315;50.150;11.070;2022-12-16T03:45:28;11.90;;;5.70;;
48522;SDS011;34315;50.150;11.070;2022-12-16T03:50:32;11.57;;;6.00;;
48522;SDS011;34315;50.150;11.070;2022-12-16T03:55:33;12.55;;;5.85;;
48522;SDS011;34315;50.150;11.070;2022-12-16T04:00:33;12.75;;;5.82;;
48522;SDS011;34315;50.150;11.070;2022-12-16T04:05:34;11.13;;;5.40;;
48522;SDS011;34315;50.150;11.070;2022-12-16T04:10:34;13.38;;;5.90;;
48522;SDS011;34315;50.150;11.070;2022-12-16T04:15:54;12.00;;;5.95;;
48522;SDS011;34315;50.150;11.070;2022-12-16T04:21:13;12.32;;;5.88;;
48522;SDS011;34315;50.150;11.070;2022-12-16T04:26:32;11.18;;;5.55;;
48522;SDS011;34315;50.150;11.070;2022-12-16T04:31:52;13.95;;;6.05;;
48522;SDS011;34315;50.150;11.070;2022-12-16T04:36:53;15.20;;;7.22;;
48522;SDS011;34315;50.150;11.070;2022-12-16T04:42:13;14.68;;;6.63;;
48522;SDS011;34315;50.150;11.070;2022-12-16T04:47:32;14.63;;;7.05;;
48522;SDS011;34315;50.150;11.070;2022-12-16T04:52:51;11.18;;;6.13;;
48522;SDS011;34315;50.150;11.070;2022-12-16T04:58:10;12.10;;;6.10;;
48522;SDS011;34315;50.150;11.070;2022-12-16T05:03:29;13.27;;;6.35;;
48522;SDS011;34315;50.150;11.070;2022-12-16T05:08:48;14.70;;;7.43;;
48522;SDS011;34315;50.150;11.070;2022-12-16T05:14:07;15.88;;;7.10;;
48522;SDS011;34315;50.150;11.070;2022-12-16T05:19:26;14.50;;;7.28;;
48522;SDS011;34315;50.150;11.070;2022-12-16T05:24:45;17.27;;;7.47;;
48522;SDS011;34315;50.150;11.070;2022-12-16T05:30:04;17.20;;;8.40;;
48522;SDS011;34315;50.150;11.070;2022-12-16T05:35:23;15.75;;;7.43;;
48522;SDS011;34315;50.150;11.070;2022-12-16T05:40:43;16.75;;;8.00;;
48522;SDS011;34315;50.150;11.070;2022-12-16T05:46:02;20.80;;;8.90;;
48522;SDS011;34315;50.150;11.070;2022-12-16T05:51:21;14.43;;;7.47;;
48522;SDS011;34315;50.150;11.070;2022-12-16T05:56:40;18.85;;;8.10;;
48522;SDS011;34315;50.150;11.070;2022-12-16T06:01:59;17.60;;;8.55;;
48522;SDS011;34315;50.150;11.070;2022-12-16T06:07:17;19.33;;;8.90;;
48522;SDS011;34315;50.150;11.070;2022-12-16T06:12:36;16.67;;;8.32;;
48522;SDS011;34315;50.150;11.070;2022-12-16T06:17:55;15.80;;;8.30;;
48522;SDS011;34315;50.150;11.070;2022-12-16T06:23:14;15.07;;;8.60;;
48522;SDS011;34315;50.150;11.070;2022-12-16T06:28:33;16.30;;;8.32;;
48522;SDS011;34315;50.150;11.070;2022-12-16T06:33:52;16.13;;;7.47;;
48522;SDS011;34315;50.150;11.070;2022-12-16T06:39:11;14.32;;;8.10;;
48522;SDS011;34315;50.150;11.070;2022-12-16T06:44:30;21.20;;;8.98;;
48522;SDS011;34315;50.150;11.070;2022-12-16T06:49:50;16.80;;;8.60;;
48522;SDS011;34315;50.150;11.070;2022-12-16T06:55:09;18.13;;;7.35;;
48522;SDS011;34315;50.150;11.070;2022-12-16T07:00:28;15.80;;;8.43;;
48522;SDS011;34315;50.150;11.070;2022-12-16T07:05:47;17.95;;;8.48;;
48522;SDS011;34315;50.150;11.070;2022-12-16T07:11:11;23.17;;;10.45;;
48522;SDS011;34315;50.150;11.070;2022-12-16T07:16:29;21.30;;;9.15;;
48522;SDS011;34315;50.150;11.070;2022-12-16T07:21:48;21.85;;;9.48;;
48522;SDS011;34315;50.150;11.070;2022-12-16T07:27:07;21.65;;;10.00;;
48522;SDS011;34315;50.150;11.070;2022-12-16T07:32:36;20.08;;;9.38;;
48522;SDS011;34315;50.150;11.070;2022-12-16T07:37:55;19.65;;;9.82;;
48522;SDS011;34315;50.150;11.070;2022-12-16T07:43:14;19.23;;;9.73;;
48522;SDS011;34315;50.150;11.070;2022-12-16T07:48:33;21.60;;;9.90;;
48522;SDS011;34315;50.150;11.070;2022-12-16T07:53:52;24.23;;;10.32;;
48522;SDS011;34315;50.150;11.070;2022-12-16T07:59:10;20.00;;;10.20;;
48522;SDS011;34315;50.150;11.070;2022-12-16T08:04:29;22.58;;;10.68;;
48522;SDS011;34315;50.150;11.070;2022-12-16T08:09:48;20.30;;;10.02;;
48522;SDS011;34315;50.150;11.070;2022-12-16T08:15:07;19.33;;;10.13;;
48522;SDS011;34315;50.150;11.070;2022-12-16T08:20:26;18.33;;;9.07;;
48522;SDS011;34315;50.150;11.070;2022-12-16T08:25:45;20.02;;;10.20;;
48522;SDS011;34315;50.150;11.070;2022-12-16T08:31:03;21.70;;;10.40;;
48522;SDS011;34315;50.150;11.070;2022-12-16T08:36:23;19.42;;;9.20;;
48522;SDS011;34315;50.150;11.070;2022-12-16T08:41:41;21.33;;;9.82;;
48522;SDS011;34315;50.150;11.070;2022-12-16T08:47:00;22.10;;;9.90;;
48522;SDS011;34315;50.150;11.070;2022-12-16T08:52:19;20.00;;;10.27;;
48522;SDS011;34315;50.150;11.070;2022-12-16T08:57:38;20.83;;;9.60;;
48522;SDS011;34315;50.150;11.070;2022-12-16T09:02:57;19.63;;;10.02;;
48522;SDS011;34315;50.150;11.070;2022-12-16T09:08:16;21.58;;;10.15;;
48522;SDS011;34315;50.150;11.070;2022-12-16T09:13:35;23.13;;;10.00;;
48522;SDS011;34315;50.150;11.070;2022-12-16T09:18:54;24.80;;;11.57;;
48522;SDS011;34315;50.150;11.070;2022-12-16T09:24:13;22.02;;;10.90;;
48522;SDS011;34315;50.150;11.070;2022-12-16T09:29:32;29.58;;;11.07;;
48522;SDS011;34315;50.150;11.070;2022-12-16T09:34:51;25.88;;;12.23;;
48522;SDS011;34315;50.150;11.070;2022-12-16T09:40:12;25.50;;;11.23;;
48522;SDS011;34315;50.150;11.070;2022-12-16T09:45:41;24.90;;;11.90;;
48522;SDS011;34315;50.150;11.070;2022-12-16T09:51:07;26.00;;;11.95;;
48522;SDS011;34315;50.150;11.070;2022-12-16T09:56:30;22.38;;;11.25;;
48522;SDS011;34315;50.150;11.070;2022-12-16T10:01:50;21.08;;;10.05;;
48522;SDS011;34315;50.150;11.070;2022-12-16T10:07:12;21.77;;;9.45;;
48522;SDS011;34315;50.150;11.070;2022-12-16T10:12:50;22.17;;;10.35;;
48522;SDS011;34315;50.150;11.070;2022-12-16T10:24:02;22.15;;;10.98;;
48522;SDS011;34315;50.150;11.070;2022-12-16T10:29:24;21.00;;;9.38;;
48522;SDS011;34315;50.150;11.070;2022-12-16T10:34:45;21.00;;;9.85;;
48522;SDS011;34315;50.150;11.070;2022-12-16T10:40:24;23.67;;;10.35;;
48522;SDS011;34315;50.150;11.070;2022-12-16T10:45:46;22.02;;;10.95;;
48522;SDS011;34315;50.150;11.070;2022-12-16T10:51:16;18.92;;;9.38;;
48522;SDS011;34315;50.150;11.070;2022-12-16T10:56:52;19.92;;;9.57;;
48522;SDS011;34315;50.150;11.070;2022-12-16T11:13:10;19.13;;;9.90;;
48522;SDS011;34315;50.150;11.070;2022-12-16T11:18:52;19.95;;;10.70;;
48522;SDS011;34315;50.150;11.070;2022-12-16T11:24:13;19.92;;;10.25;;
48522;SDS011;34315;50.150;11.070;2022-12-16T11:29:32;19.58;;;10.32;;
48522;SDS011;34315;50.150;11.070;2022-12-16T11:34:52;20.90;;;10.30;;
48522;SDS011;34315;50.150;11.070;2022-12-16T11:40:13;19.55;;;9.75;;
48522;SDS011;34315;50.150;11.070;2022-12-16T11:45:33;19.60;;;10.10;;
48522;SDS011;34315;50.150;11.070;2022-12-16T11:50:53;21.05;;;10.15;;
48522;SDS011;34315;50.150;11.070;2022-12-16T11:56:16;18.52;;;9.02;;
48522;SDS011;34315;50.150;11.070;2022-12-16T12:01:44;20.85;;;8.82;;
48522;SDS011;34315;50.150;11.070;2022-12-16T12:12:56;19.02;;;9.13;;
48522;SDS011;34315;50.150;11.070;2022-12-16T12:24:01;16.70;;;8.88;;
48522;SDS011;34315;50.150;11.070;2022-12-16T12:29:36;21.88;;;9.55;;
48522;SDS011;34315;50.150;11.070;2022-12-16T12:41:02;21.45;;;10.32;;
48522;SDS011;34315;50.150;11.070;2022-12-16T12:46:28;20.27;;;9.93;;
48522;SDS011;34315;50.150;11.070;2022-12-16T12:51:54;21.17;;;9.63;;
48522;SDS011;34315;50.150;11.070;2022-12-16T12:57:21;17.52;;;9.68;;
48522;SDS011;34315;50.150;11.070;2022-12-16T13:02:47;22.17;;;9.38;;
48522;SDS011;34315;50.150;11.070;2022-12-16T13:13:55;21.77;;;9.50;;
48522;SDS011;34315;50.150;11.070;2022-12-16T13:24:48;21.33;;;10.57;;
48522;SDS011;34315;50.150;11.070;2022-12-16T13:35:30;21.63;;;11.02;;
48522;SDS011;34315;50.150;11.070;2022-12-16T13:41:08;19.95;;;10.85;;
48522;SDS011;34315;50.150;11.070;2022-12-16T13:52:03;21.48;;;11.07;;
48522;SDS011;34315;50.150;11.070;2022-12-16T13:57:34;23.70;;;11.00;;
48522;SDS011;34315;50.150;11.070;2022-12-16T14:02:55;24.63;;;11.02;;
48522;SDS011;34315;50.150;11.070;2022-12-16T14:08:22;20.20;;;9.95;;
48522;SDS011;34315;50.150;11.070;2022-12-16T14:13:44;23.00;;;10.85;;
48522;SDS011;34315;50.150;11.070;2022-12-16T14:19:11;23.17;;;10.48;;
48522;SDS011;34315;50.150;11.070;2022-12-16T14:24:36;22.00;;;10.07;;
48522;SDS011;34315;50.150;11.070;2022-12-16T14:35:38;21.58;;;9.88;;
48522;SDS011;34315;50.150;11.070;2022-12-16T14:41:09;20.15;;;10.43;;
48522;SDS011;34315;50.150;11.070;2022-12-16T14:46:29;20.92;;;10.20;;
48522;SDS011;34315;50.150;11.070;2022-12-16T14:51:49;22.17;;;11.27;;
48522;SDS011;34315;50.150;11.070;2022-12-16T14:57:22;25.20;;;11.57;;
48522;SDS011;34315;50.150;11.070;2022-12-16T15:02:43;20.92;;;10.75;;
48522;SDS011;34315;50.150;11.070;2022-12-16T15:08:04;23.70;;;11.50;;
48522;SDS011;34315;50.150;11.070;2022-12-16T15:13:23;23.20;;;11.00;;
48522;SDS011;34315;50.150;11.070;2022-12-16T15:18:43;26.42;;;11.30;;
48522;SDS011;34315;50.150;11.070;2022-12-16T15:24:12;26.95;;;12.43;;
48522;SDS011;34315;50.150;11.070;2022-12-16T15:29:37;25.98;;;12.52;;
48522;SDS011;34315;50.150;11.070;2022-12-16T15:34:57;29.58;;;14.95;;
48522;SDS011;34315;50.150;11.070;2022-12-16T15:40:18;30.95;;;15.40;;
48522;SDS011;34315;50.150;11.070;2022-12-16T15:45:38;34.53;;;16.02;;
48522;SDS011;34315;50.150;11.070;2022-12-16T15:56:44;31.45;;;14.85;;
48522;SDS011;34315;50.150;11.070;2022-12-16T16:02:12;31.90;;;14.80;;
48522;SDS011;34315;50.150;11.070;2022-12-16T16:07:34;34.67;;;16.48;;
48522;SDS011;34315;50.150;11.070;2022-12-16T16:12:53;32.35;;;15.45;;
48522;SDS011;34315;50.150;11.070;2022-12-16T16:18:16;35.42;;;14.45;;
48522;SDS011;34315;50.150;11.070;2022-12-16T16:23:35;30.75;;;13.93;;
48522;SDS011;34315;50.150;11.070;2022-12-16T16:28:54;29.40;;;14.25;;
48522;SDS011;34315;50.150;11.070;2022-12-16T16:34:13;26.55;;;13.13;;
48522;SDS011;34315;50.150;11.070;2022-12-16T16:39:32;29.42;;;14.35;;
48522;SDS011;34315;50.150;11.070;2022-12-16T16:44:50;30.30;;;15.52;;
48522;SDS011;34315;50.150;11.070;2022-12-16T16:50:13;30.25;;;17.02;;
48522;SDS011;34315;50.150;11.070;2022-12-16T16:55:32;33.63;;;14.52;;
48522;SDS011;34315;50.150;11.070;2022-12-16T17:00:51;26.33;;;13.35;;
48522;SDS011;34315;50.150;11.070;2022-12-16T17:06:10;30.10;;;15.05;;
48522;SDS011;34315;50.150;11.070;2022-12-16T17:11:29;31.02;;;15.48;;
48522;SDS011;34315;50.150;11.070;2022-12-16T17:16:48;34.40;;;17.50;;
48522;SDS011;34315;50.150;11.070;2022-12-16T17:22:07;35.22;;;16.83;;
48522;SDS011;34315;50.150;11.070;2022-12-16T17:27:26;33.85;;;15.32;;
48522;SDS011;34315;50.150;11.070;2022-12-16T17:38:22;36.35;;;15.70;;
48522;SDS011;34315;50.150;11.070;2022-12-16T17:43:41;34.38;;;15.13;;
48522;SDS011;34315;50.150;11.070;2022-12-16T17:49:08;31.88;;;14.95;;
48522;SDS011;34315;50.150;11.070;2022-12-16T17:54:38;32.47;;;14.68;;
48522;SDS011;34315;50.150;11.070;2022-12-16T17:59:56;32.22;;;14.77;;
48522;SDS011;34315;50.150;11.070;2022-12-16T18:05:15;35.15;;;16.10;;
48522;SDS011;34315;50.150;11.070;2022-12-16T18:10:34;41.92;;;18.40;;
48522;SDS011;34315;50.150;11.070;2022-12-16T18:15:53;35.67;;;15.85;;
48522;SDS011;34315;50.150;11.070;2022-12-16T18:21:13;29.23;;;14.20;;
48522;SDS011;34315;50.150;11.070;2022-12-16T18:26:32;29.90;;;14.38;;
48522;SDS011;34315;50.150;11.070;2022-12-16T18:31:50;33.45;;;15.32;;
48522;SDS011;34315;50.150;11.070;2022-12-16T18:37:10;32.30;;;14.73;;
48522;SDS011;34315;50.150;11.070;2022-12-16T18:42:30;34.97;;;15.43;;
48522;SDS011;34315;50.150;11.070;2022-12-16T18:47:49;37.67;;;16.02;;
48522;SDS011;34315;50.150;11.070;2022-12-16T18:53:08;33.47;;;15.55;;
48522;SDS011;34315;50.150;11.070;2022-12-16T18:58:26;38.85;;;15.70;;
48522;SDS011;34315;50.150;11.070;2022-12-16T19:03:45;38.15;;;16.13;;
48522;SDS011;34315;50.150;11.070;2022-12-16T19:09:04;38.35;;;14.93;;
48522;SDS011;34315;50.150;11.070;2022-12-16T19:14:23;29.45;;;14.80;;
48522;SDS011;34315;50.150;11.070;2022-12-16T19:19:42;28.42;;;13.43;;
48522;SDS011;34315;50.150;11.070;2022-12-16T19:25:00;34.10;;;15.70;;
48522;SDS011;34315;50.150;11.070;2022-12-16T19:30:19;31.88;;;14.52;;
48522;SDS011;34315;50.150;11.070;2022-12-16T19:35:38;34.72;;;15.00;;
48522;SDS011;34315;50.150;11.070;2022-12-16T19:40:57;36.55;;;16.40;;
48522;SDS011;34315;50.150;11.070;2022-12-16T19:46:16;43.80;;;17.42;;
48522;SDS011;34315;50.150;11.070;2022-12-16T19:51:35;37.35;;;17.45;;
48522;SDS011;34315;50.150;11.070;2022-12-16T19:56:54;38.70;;;18.38;;
48522;SDS011;34315;50.150;11.070;2022-12-16T20:02:13;38.30;;;17.33;;
48522;SDS011;34315;50.150;11.070;2022-12-16T20:07:31;41.90;;;20.02;;
48522;SDS011;34315;50.150;11.070;2022-12-16T20:12:50;45.30;;;21.77;;
48522;SDS011;34315;50.150;11.070;2022-12-16T20:18:29;47.33;;;19.38;;
48522;SDS011;34315;50.150;11.070;2022-12-16T20:23:48;43.55;;;18.73;;
48522;SDS011;34315;50.150;11.070;2022-12-16T20:29:07;47.90;;;18.10;;
48522;SDS011;34315;50.150;11.070;2022-12-16T20:34:26;37.75;;;15.88;;
48522;SDS011;34315;50.150;11.070;2022-12-16T20:39:46;38.28;;;16.33;;
48522;SDS011;34315;50.150;11.070;2022-12-16T20:45:05;38.15;;;17.40;;
48522;SDS011;34315;50.150;11.070;2022-12-16T20:50:28;48.33;;;19.30;;
48522;SDS011;34315;50.150;11.070;2022-12-16T20:55:47;49.13;;;20.20;;
48522;SDS011;34315;50.150;11.070;2022-12-16T21:01:06;39.05;;;16.45;;
48522;SDS011;34315;50.150;11.070;2022-12-16T21:06:25;41.65;;;18.40;;
48522;SDS011;34315;50.150;11.070;2022-12-16T21:11:44;52.30;;;21.08;;
48522;SDS011;34315;50.150;11.070;2022-12-16T21:17:02;43.45;;;20.13;;
48522;SDS011;34315;50.150;11.070;2022-12-16T21:22:22;46.13;;;19.70;;
48522;SDS011;34315;50.150;11.070;2022-12-16T21:27:41;44.08;;;19.08;;
48522;SDS011;34315;50.150;11.070;2022-12-16T21:32:59;32.00;;;15.88;;
48522;SDS011;34315;50.150;11.070;2022-12-16T21:38:18;42.65;;;16.10;;
48522;SDS011;34315;50.150;11.070;2022-12-16T21:43:37;34.60;;;15.57;;
48522;SDS011;34315;50.150;11.070;2022-12-16T21:48:56;33.25;;;14.95;;
48522;SDS011;34315;50.150;11.070;2022-12-16T21:54:15;35.00;;;15.73;;
48522;SDS011;34315;50.150;11.070;2022-12-16T21:59:33;38.65;;;15.13;;
48522;SDS011;34315;50.150;11.070;2022-12-16T22:04:52;33.97;;;14.50;;
48522;SDS011;34315;50.150;11.070;2022-12-16T22:10:11;33.42;;;14.60;;
48522;SDS011;34315;50.150;11.070;2022-12-16T22:15:30;37.00;;;15.43;;
48522;SDS011;34315;50.150;11.070;2022-12-16T22:20:59;32.13;;;13.55;;
48522;SDS011;34315;50.150;11.070;2022-12-16T22:26:19;35.65;;;15.73;;
48522;SDS011;34315;50.150;11.070;2022-12-16T22:31:38;41.67;;;16.67;;
48522;SDS011;34315;50.150;11.070;2022-12-16T22:36:57;44.30;;;18.15;;
48522;SDS011;34315;50.150;11.070;2022-12-16T22:42:15;47.22;;;17.52;;
48522;SDS011;34315;50.150;11.070;2022-12-16T22:47:34;49.55;;;18.85;;
48522;SDS011;34315;50.150;11.070;2022-12-16T22:52:53;43.83;;;19.25;;
48522;SDS011;34315;50.150;11.070;2022-12-16T22:58:12;46.28;;;17.92;;
48522;SDS011;34315;50.150;11.070;2022-12-16T23:03:31;41.30;;;16.77;;
48522;SDS011;34315;50.150;11.070;2022-12-16T23:08:50;35.85;;;16.45;;
48522;SDS011;34315;50.150;11.070;2022-12-16T23:14:09;37.58;;;16.13;;
48522;SDS011;34315;50.150;11.070;2022-12-16T23:19:27;35.45;;;15.63;;
48522;SDS011;34315;50.150;11.070;2022-12-16T23:24:46;33.63;;;14.40;;
48522;SDS011;34315;50.150;11.070;2022-12-16T23:30:05;35.58;;;14.63;;
48522;SDS011;34315;50.150;11.070;2022-12-16T23:35:25;39.83;;;15.50;;
48522;SDS011;34315;50.150;11.070;2022-12-16T23:40:43;31.35;;;14.38;;
48522;SDS011;34315;50.150;11.070;2022-12-16T23:46:02;35.90;;;16.08;;
48522;SDS011;34315;50.150;11.070;2022-12-16T23:51:21;36.63;;;14.30;;
48522;SDS011;34315;50.150;11.070;2022-12-16T23:56:41;37.15;;;13.93;;
